Terminal Aerodrome Forecast
Issued by NWS Wilmington, OH

Home | Current Version | Previous Version | Text Only | Print | Product List | Glossary On
Versions: 1 2 3 4 5 6 7 8 9 10 11 12 13 14 15 16 17 18 19 20 21 22 23 24 25 26
000
FTUS41 KILN 212300
TAFCVG
TAF
KCVG 212330Z 2200/2306 35007KT P6SM OVC045
     FM220700 35006KT P6SM BKN022
      TEMPO 2207/2211 SCT022
     FM221500 35008KT P6SM SCT035
     FM230000 01004KT P6SM SKC=

USA.gov is the U.S. government's official web portal to all federal, state and local government web resources and services.